sensor_id;sensor_type;location;lat;lon;timestamp;temperature;humidity
15617;DHT22;7908;51.688;7.130;2022-08-21T00:01:33;17.00;99.90
15617;DHT22;7908;51.688;7.130;2022-08-21T00:04:10;16.90;99.90
15617;DHT22;7908;51.688;7.130;2022-08-21T00:06:51;16.80;99.90
15617;DHT22;7908;51.688;7.130;2022-08-21T00:09:48;16.80;99.90
15617;DHT22;7908;51.688;7.130;2022-08-21T00:12:23;16.80;99.90
15617;DHT22;7908;51.688;7.130;2022-08-21T00:14:58;16.70;99.90
15617;DHT22;7908;51.688;7.130;2022-08-21T00:17:28;16.70;99.90
15617;DHT22;7908;51.688;7.130;2022-08-21T00:20:04;16.70;99.90
15617;DHT22;7908;51.688;7.130;2022-08-21T00:22:34;16.60;99.90
15617;DHT22;7908;51.688;7.130;2022-08-21T00:25:05;16.50;99.90
15617;DHT22;7908;51.688;7.130;2022-08-21T00:27:42;16.50;99.90
15617;DHT22;7908;51.688;7.130;2022-08-21T00:30:19;16.40;99.90
15617;DHT22;7908;51.688;7.130;2022-08-21T00:32:51;16.40;99.90
15617;DHT22;7908;51.688;7.130;2022-08-21T00:35:29;16.40;99.90
15617;DHT22;7908;51.688;7.130;2022-08-21T00:37:59;16.30;99.90
15617;DHT22;7908;51.688;7.130;2022-08-21T00:40:39;16.30;99.90
15617;DHT22;7908;51.688;7.130;2022-08-21T00:43:17;16.30;99.90
15617;DHT22;7908;51.688;7.130;2022-08-21T00:45:48;16.30;99.90
15617;DHT22;7908;51.688;7.130;2022-08-21T00:48:26;16.40;99.90
15617;DHT22;7908;51.688;7.130;2022-08-21T00:51:04;16.40;99.90
15617;DHT22;7908;51.688;7.130;2022-08-21T00:53:38;16.40;99.90
15617;DHT22;7908;51.688;7.130;2022-08-21T00:56:09;16.40;99.90
15617;DHT22;7908;51.688;7.130;2022-08-21T00:58:54;16.40;99.90
15617;DHT22;7908;51.688;7.130;2022-08-21T01:01:25;16.20;99.90
15617;DHT22;7908;51.688;7.130;2022-08-21T01:04:04;15.90;99.90
15617;DHT22;7908;51.688;7.130;2022-08-21T01:06:37;15.80;99.90
15617;DHT22;7908;51.688;7.130;2022-08-21T01:09:17;15.70;99.90
15617;DHT22;7908;51.688;7.130;2022-08-21T01:11:49;15.70;99.90
15617;DHT22;7908;51.688;7.130;2022-08-21T01:14:26;15.70;99.90
15617;DHT22;7908;51.688;7.130;2022-08-21T01:17:06;15.70;99.90
15617;DHT22;7908;51.688;7.130;2022-08-21T01:19:38;15.80;99.90
15617;DHT22;7908;51.688;7.130;2022-08-21T01:22:11;15.70;99.90
15617;DHT22;7908;51.688;7.130;2022-08-21T01:24:47;15.70;99.90
15617;DHT22;7908;51.688;7.130;2022-08-21T01:27:17;15.60;99.90
15617;DHT22;7908;51.688;7.130;2022-08-21T01:29:54;15.40;99.90
15617;DHT22;7908;51.688;7.130;2022-08-21T01:32:24;15.40;99.90
15617;DHT22;7908;51.688;7.130;2022-08-21T01:34:56;15.30;99.90
15617;DHT22;7908;51.688;7.130;2022-08-21T01:37:30;15.20;99.90
15617;DHT22;7908;51.688;7.130;2022-08-21T01:40:10;15.20;99.90
15617;DHT22;7908;51.688;7.130;2022-08-21T01:42:44;15.30;99.90
15617;DHT22;7908;51.688;7.130;2022-08-21T01:45:16;15.30;99.90
15617;DHT22;7908;51.688;7.130;2022-08-21T01:47:54;15.30;99.90
15617;DHT22;7908;51.688;7.130;2022-08-21T01:50:23;15.30;99.90
15617;DHT22;7908;51.688;7.130;2022-08-21T01:53:04;15.20;99.90
15617;DHT22;7908;51.688;7.130;2022-08-21T01:55:33;15.10;99.90
15617;DHT22;7908;51.688;7.130;2022-08-21T01:58:03;15.00;99.90
15617;DHT22;7908;51.688;7.130;2022-08-21T02:00:37;15.00;99.90
15617;DHT22;7908;51.688;7.130;2022-08-21T02:03:10;15.00;99.90
15617;DHT22;7908;51.688;7.130;2022-08-21T02:05:52;15.00;99.90
15617;DHT22;7908;51.688;7.130;2022-08-21T02:08:23;15.00;99.90
15617;DHT22;7908;51.688;7.130;2022-08-21T02:10:59;14.90;99.90
15617;DHT22;7908;51.688;7.130;2022-08-21T02:13:31;14.80;99.90
15617;DHT22;7908;51.688;7.130;2022-08-21T02:16:06;14.70;99.90
15617;DHT22;7908;51.688;7.130;2022-08-21T02:18:39;14.60;99.90
15617;DHT22;7908;51.688;7.130;2022-08-21T02:21:09;14.60;99.90
15617;DHT22;7908;51.688;7.130;2022-08-21T02:23:43;14.50;99.90
15617;DHT22;7908;51.688;7.130;2022-08-21T02:26:13;14.50;99.90
15617;DHT22;7908;51.688;7.130;2022-08-21T02:28:46;14.50;99.90
15617;DHT22;7908;51.688;7.130;2022-08-21T02:31:19;14.40;99.90
15617;DHT22;7908;51.688;7.130;2022-08-21T02:33:49;14.30;99.90
15617;DHT22;7908;51.688;7.130;2022-08-21T02:36:23;14.40;99.90
15617;DHT22;7908;51.688;7.130;2022-08-21T02:38:57;14.40;99.90
15617;DHT22;7908;51.688;7.130;2022-08-21T02:41:26;14.50;99.90
15617;DHT22;7908;51.688;7.130;2022-08-21T02:43:59;14.50;99.90
15617;DHT22;7908;51.688;7.130;2022-08-21T02:46:31;14.50;99.90
15617;DHT22;7908;51.688;7.130;2022-08-21T02:49:02;14.40;99.90
15617;DHT22;7908;51.688;7.130;2022-08-21T02:51:33;14.30;99.90
15617;DHT22;7908;51.688;7.130;2022-08-21T02:54:06;14.30;99.90
15617;DHT22;7908;51.688;7.130;2022-08-21T02:56:36;14.30;99.90
15617;DHT22;7908;51.688;7.130;2022-08-21T02:59:06;14.30;99.90
15617;DHT22;7908;51.688;7.130;2022-08-21T03:01:38;14.30;99.90
15617;DHT22;7908;51.688;7.130;2022-08-21T03:04:12;14.20;99.90
15617;DHT22;7908;51.688;7.130;2022-08-21T03:06:41;14.20;99.90
15617;DHT22;7908;51.688;7.130;2022-08-21T03:09:13;14.10;99.90
15617;DHT22;7908;51.688;7.130;2022-08-21T03:11:42;14.00;99.90
15617;DHT22;7908;51.688;7.130;2022-08-21T03:14:16;14.10;99.90
15617;DHT22;7908;51.688;7.130;2022-08-21T03:16:59;14.20;99.90
15617;DHT22;7908;51.688;7.130;2022-08-21T03:19:29;14.20;99.90
15617;DHT22;7908;51.688;7.130;2022-08-21T03:22:02;14.30;99.90
15617;DHT22;7908;51.688;7.130;2022-08-21T03:24:35;14.30;99.90
15617;DHT22;7908;51.688;7.130;2022-08-21T03:27:10;14.30;99.90
15617;DHT22;7908;51.688;7.130;2022-08-21T03:29:40;14.20;99.90
15617;DHT22;7908;51.688;7.130;2022-08-21T03:32:10;14.20;99.90
15617;DHT22;7908;51.688;7.130;2022-08-21T03:34:40;14.00;99.90
15617;DHT22;7908;51.688;7.130;2022-08-21T03:37:13;14.00;99.90
15617;DHT22;7908;51.688;7.130;2022-08-21T03:39:48;14.10;99.90
15617;DHT22;7908;51.688;7.130;2022-08-21T03:42:19;14.00;99.90
15617;DHT22;7908;51.688;7.130;2022-08-21T03:44:51;14.00;99.90
15617;DHT22;7908;51.688;7.130;2022-08-21T03:47:21;14.00;99.90
15617;DHT22;7908;51.688;7.130;2022-08-21T03:49:52;13.90;99.90
15617;DHT22;7908;51.688;7.130;2022-08-21T03:52:24;13.80;99.90
15617;DHT22;7908;51.688;7.130;2022-08-21T03:54:56;13.80;99.90
15617;DHT22;7908;51.688;7.130;2022-08-21T03:57:26;13.90;99.90
15617;DHT22;7908;51.688;7.130;2022-08-21T03:59:55;13.80;99.90
15617;DHT22;7908;51.688;7.130;2022-08-21T04:02:25;13.80;99.90
15617;DHT22;7908;51.688;7.130;2022-08-21T04:04:59;13.70;99.90
15617;DHT22;7908;51.688;7.130;2022-08-21T04:07:32;13.70;99.90
15617;DHT22;7908;51.688;7.130;2022-08-21T04:10:08;13.60;99.90
15617;DHT22;7908;51.688;7.130;2022-08-21T04:12:41;13.60;99.90
15617;DHT22;7908;51.688;7.130;2022-08-21T04:15:11;13.40;99.90
15617;DHT22;7908;51.688;7.130;2022-08-21T04:17:43;13.30;99.90
15617;DHT22;7908;51.688;7.130;2022-08-21T04:20:17;13.30;99.90
15617;DHT22;7908;51.688;7.130;2022-08-21T04:22:46;13.40;99.90
15617;DHT22;7908;51.688;7.130;2022-08-21T04:25:19;13.40;99.90
15617;DHT22;7908;51.688;7.130;2022-08-21T04:27:49;13.40;99.90
15617;DHT22;7908;51.688;7.130;2022-08-21T04:30:21;13.30;99.90
15617;DHT22;7908;51.688;7.130;2022-08-21T04:32:56;13.20;99.90
15617;DHT22;7908;51.688;7.130;2022-08-21T04:35:30;13.20;99.90
15617;DHT22;7908;51.688;7.130;2022-08-21T04:38:03;13.20;99.90
15617;DHT22;7908;51.688;7.130;2022-08-21T04:40:36;13.20;99.90
15617;DHT22;7908;51.688;7.130;2022-08-21T04:43:14;13.30;99.90
15617;DHT22;7908;51.688;7.130;2022-08-21T04:45:45;13.40;99.90
15617;DHT22;7908;51.688;7.130;2022-08-21T04:48:20;13.40;99.90
15617;DHT22;7908;51.688;7.130;2022-08-21T04:50:54;13.40;99.90
15617;DHT22;7908;51.688;7.130;2022-08-21T04:53:34;13.30;99.90
15617;DHT22;7908;51.688;7.130;2022-08-21T04:56:11;13.20;99.90
15617;DHT22;7908;51.688;7.130;2022-08-21T04:58:42;13.10;99.90
15617;DHT22;7908;51.688;7.130;2022-08-21T05:01:20;13.10;99.90
15617;DHT22;7908;51.688;7.130;2022-08-21T05:03:56;13.10;99.90
15617;DHT22;7908;51.688;7.130;2022-08-21T05:06:29;13.20;99.90
15617;DHT22;7908;51.688;7.130;2022-08-21T05:09:05;13.30;99.90
15617;DHT22;7908;51.688;7.130;2022-08-21T05:11:38;13.40;99.90
15617;DHT22;7908;51.688;7.130;2022-08-21T05:14:12;13.50;99.90
15617;DHT22;7908;51.688;7.130;2022-08-21T05:16:42;13.50;99.90
15617;DHT22;7908;51.688;7.130;2022-08-21T05:19:14;13.50;99.90
15617;DHT22;7908;51.688;7.130;2022-08-21T05:21:48;13.50;99.90
15617;DHT22;7908;51.688;7.130;2022-08-21T05:24:23;13.50;99.90
15617;DHT22;7908;51.688;7.130;2022-08-21T05:26:54;13.50;99.90
15617;DHT22;7908;51.688;7.130;2022-08-21T05:29:27;13.50;99.90
15617;DHT22;7908;51.688;7.130;2022-08-21T05:31:59;13.60;99.90
15617;DHT22;7908;51.688;7.130;2022-08-21T05:34:28;13.60;99.90
15617;DHT22;7908;51.688;7.130;2022-08-21T05:37:01;13.80;99.90
15617;DHT22;7908;51.688;7.130;2022-08-21T05:39:36;13.80;99.90
15617;DHT22;7908;51.688;7.130;2022-08-21T05:42:27;13.90;99.90
15617;DHT22;7908;51.688;7.130;2022-08-21T05:44:59;14.00;99.90
15617;DHT22;7908;51.688;7.130;2022-08-21T05:47:29;14.10;99.90
15617;DHT22;7908;51.688;7.130;2022-08-21T05:50:02;14.10;99.90
15617;DHT22;7908;51.688;7.130;2022-08-21T05:52:32;14.20;99.90
15617;DHT22;7908;51.688;7.130;2022-08-21T05:55:06;14.40;99.90
15617;DHT22;7908;51.688;7.130;2022-08-21T05:57:51;14.50;99.90
15617;DHT22;7908;51.688;7.130;2022-08-21T06:00:21;14.60;99.90
15617;DHT22;7908;51.688;7.130;2022-08-21T06:02:51;14.80;99.90
15617;DHT22;7908;51.688;7.130;2022-08-21T06:05:26;14.90;99.90
15617;DHT22;7908;51.688;7.130;2022-08-21T06:08:07;15.00;99.90
15617;DHT22;7908;51.688;7.130;2022-08-21T06:10:38;15.20;99.90
15617;DHT22;7908;51.688;7.130;2022-08-21T06:13:09;15.30;99.90
15617;DHT22;7908;51.688;7.130;2022-08-21T06:15:43;15.40;99.90
15617;DHT22;7908;51.688;7.130;2022-08-21T06:18:26;15.50;99.90
15617;DHT22;7908;51.688;7.130;2022-08-21T06:20:59;15.70;99.90
15617;DHT22;7908;51.688;7.130;2022-08-21T06:23:29;15.80;99.90
15617;DHT22;7908;51.688;7.130;2022-08-21T06:26:02;16.00;99.90
15617;DHT22;7908;51.688;7.130;2022-08-21T06:28:50;16.10;99.90
15617;DHT22;7908;51.688;7.130;2022-08-21T06:31:21;16.30;99.90
15617;DHT22;7908;51.688;7.130;2022-08-21T06:33:55;16.40;99.90
15617;DHT22;7908;51.688;7.130;2022-08-21T06:36:27;16.60;99.90
15617;DHT22;7908;51.688;7.130;2022-08-21T06:39:02;16.80;99.90
15617;DHT22;7908;51.688;7.130;2022-08-21T06:41:51;16.90;99.90
15617;DHT22;7908;51.688;7.130;2022-08-21T06:44:26;17.10;99.90
15617;DHT22;7908;51.688;7.130;2022-08-21T06:46:56;17.30;99.90
15617;DHT22;7908;51.688;7.130;2022-08-21T06:49:27;17.60;99.90
15617;DHT22;7908;51.688;7.130;2022-08-21T06:51:59;17.80;99.90
15617;DHT22;7908;51.688;7.130;2022-08-21T06:54:34;18.00;99.90
15617;DHT22;7908;51.688;7.130;2022-08-21T06:57:04;18.20;99.90
15617;DHT22;7908;51.688;7.130;2022-08-21T06:59:40;18.40;99.90
15617;DHT22;7908;51.688;7.130;2022-08-21T07:02:14;18.50;99.90
15617;DHT22;7908;51.688;7.130;2022-08-21T07:04:43;18.70;99.90
15617;DHT22;7908;51.688;7.130;2022-08-21T07:07:19;18.80;99.90
15617;DHT22;7908;51.688;7.130;2022-08-21T07:10:00;19.00;99.90
15617;DHT22;7908;51.688;7.130;2022-08-21T07:12:35;19.10;99.90
15617;DHT22;7908;51.688;7.130;2022-08-21T07:15:18;19.30;99.90
15617;DHT22;7908;51.688;7.130;2022-08-21T07:17:56;19.30;99.90
15617;DHT22;7908;51.688;7.130;2022-08-21T07:20:31;19.40;99.90
15617;DHT22;7908;51.688;7.130;2022-08-21T07:23:16;19.50;99.90
15617;DHT22;7908;51.688;7.130;2022-08-21T07:25:54;19.60;99.90
15617;DHT22;7908;51.688;7.130;2022-08-21T07:28:33;19.70;99.90
15617;DHT22;7908;51.688;7.130;2022-08-21T07:31:05;19.80;99.90
15617;DHT22;7908;51.688;7.130;2022-08-21T07:33:50;19.90;99.90
15617;DHT22;7908;51.688;7.130;2022-08-21T07:36:20;19.90;99.90
15617;DHT22;7908;51.688;7.130;2022-08-21T07:39:00;20.00;99.90
15617;DHT22;7908;51.688;7.130;2022-08-21T07:41:34;20.10;99.90
15617;DHT22;7908;51.688;7.130;2022-08-21T07:44:14;20.10;99.90
15617;DHT22;7908;51.688;7.130;2022-08-21T07:47:18;20.20;99.90
15617;DHT22;7908;51.688;7.130;2022-08-21T07:50:13;20.30;99.90
15617;DHT22;7908;51.688;7.130;2022-08-21T07:52:45;20.30;99.90
15617;DHT22;7908;51.688;7.130;2022-08-21T07:55:22;20.30;99.90
15617;DHT22;7908;51.688;7.130;2022-08-21T07:57:52;20.40;99.90
15617;DHT22;7908;51.688;7.130;2022-08-21T08:00:32;20.30;99.90
15617;DHT22;7908;51.688;7.130;2022-08-21T08:03:15;20.40;99.90
15617;DHT22;7908;51.688;7.130;2022-08-21T08:05:58;20.40;99.90
15617;DHT22;7908;51.688;7.130;2022-08-21T08:08:37;20.40;99.90
15617;DHT22;7908;51.688;7.130;2022-08-21T08:11:22;20.50;99.90
15617;DHT22;7908;51.688;7.130;2022-08-21T08:13:56;20.50;99.90
15617;DHT22;7908;51.688;7.130;2022-08-21T08:16:32;20.60;99.90
15617;DHT22;7908;51.688;7.130;2022-08-21T08:19:11;20.70;99.90
15617;DHT22;7908;51.688;7.130;2022-08-21T08:21:58;20.80;99.90
15617;DHT22;7908;51.688;7.130;2022-08-21T08:24:38;20.90;99.90
15617;DHT22;7908;51.688;7.130;2022-08-21T08:27:15;20.90;99.90
15617;DHT22;7908;51.688;7.130;2022-08-21T08:29:49;20.90;99.90
15617;DHT22;7908;51.688;7.130;2022-08-21T08:32:26;20.90;99.90
15617;DHT22;7908;51.688;7.130;2022-08-21T08:34:58;20.90;99.90
15617;DHT22;7908;51.688;7.130;2022-08-21T08:37:32;21.00;99.90
15617;DHT22;7908;51.688;7.130;2022-08-21T08:40:25;21.10;99.90
15617;DHT22;7908;51.688;7.130;2022-08-21T08:43:13;21.00;99.90
15617;DHT22;7908;51.688;7.130;2022-08-21T08:45:55;21.00;99.90
15617;DHT22;7908;51.688;7.130;2022-08-21T08:48:43;21.10;99.90
15617;DHT22;7908;51.688;7.130;2022-08-21T08:51:30;21.20;99.90
15617;DHT22;7908;51.688;7.130;2022-08-21T08:54:09;21.20;99.90
15617;DHT22;7908;51.688;7.130;2022-08-21T08:56:39;21.20;99.90
15617;DHT22;7908;51.688;7.130;2022-08-21T08:59:16;21.20;99.90
15617;DHT22;7908;51.688;7.130;2022-08-21T09:02:06;21.30;99.90
15617;DHT22;7908;51.688;7.130;2022-08-21T09:04:51;21.40;99.90
15617;DHT22;7908;51.688;7.130;2022-08-21T09:07:35;21.50;99.90
15617;DHT22;7908;51.688;7.130;2022-08-21T09:10:13;21.50;99.90
15617;DHT22;7908;51.688;7.130;2022-08-21T09:12:59;21.60;99.90
15617;DHT22;7908;51.688;7.130;2022-08-21T09:15:50;21.60;99.90
15617;DHT22;7908;51.688;7.130;2022-08-21T09:18:50;21.60;99.90
15617;DHT22;7908;51.688;7.130;2022-08-21T09:21:41;21.60;99.90
15617;DHT22;7908;51.688;7.130;2022-08-21T09:24:31;21.70;99.90
15617;DHT22;7908;51.688;7.130;2022-08-21T09:27:07;21.70;99.90
15617;DHT22;7908;51.688;7.130;2022-08-21T09:29:45;21.70;99.90
15617;DHT22;7908;51.688;7.130;2022-08-21T09:32:25;21.70;99.90
15617;DHT22;7908;51.688;7.130;2022-08-21T09:35:13;21.70;99.90
15617;DHT22;7908;51.688;7.130;2022-08-21T09:37:51;21.70;99.90
15617;DHT22;7908;51.688;7.130;2022-08-21T09:40:40;21.70;99.90
15617;DHT22;7908;51.688;7.130;2022-08-21T09:43:18;21.70;99.90
15617;DHT22;7908;51.688;7.130;2022-08-21T09:46:05;21.70;99.90
15617;DHT22;7908;51.688;7.130;2022-08-21T09:48:52;21.90;99.90
15617;DHT22;7908;51.688;7.130;2022-08-21T09:51:52;21.90;99.90
15617;DHT22;7908;51.688;7.130;2022-08-21T09:54:34;21.90;99.90
15617;DHT22;7908;51.688;7.130;2022-08-21T09:57:16;22.00;99.90
15617;DHT22;7908;51.688;7.130;2022-08-21T10:00:34;22.10;99.90
15617;DHT22;7908;51.688;7.130;2022-08-21T10:03:15;22.30;99.90
15617;DHT22;7908;51.688;7.130;2022-08-21T10:05:58;22.30;99.90
15617;DHT22;7908;51.688;7.130;2022-08-21T10:09:05;22.30;99.90
15617;DHT22;7908;51.688;7.130;2022-08-21T10:11:58;22.30;99.90
15617;DHT22;7908;51.688;7.130;2022-08-21T10:14:54;22.30;99.90
15617;DHT22;7908;51.688;7.130;2022-08-21T10:17:32;22.50;99.90
15617;DHT22;7908;51.688;7.130;2022-08-21T10:20:17;22.50;99.90
15617;DHT22;7908;51.688;7.130;2022-08-21T10:23:04;22.50;99.90
15617;DHT22;7908;51.688;7.130;2022-08-21T10:25:56;22.40;99.90
15617;DHT22;7908;51.688;7.130;2022-08-21T10:28:46;22.30;99.90
15617;DHT22;7908;51.688;7.130;2022-08-21T10:31:32;22.40;99.90
15617;DHT22;7908;51.688;7.130;2022-08-21T10:34:24;22.50;99.90
15617;DHT22;7908;51.688;7.130;2022-08-21T10:37:11;22.50;99.90
15617;DHT22;7908;51.688;7.130;2022-08-21T10:39:53;22.50;99.90
15617;DHT22;7908;51.688;7.130;2022-08-21T10:42:44;22.50;99.90
15617;DHT22;7908;51.688;7.130;2022-08-21T10:45:45;22.50;99.90
15617;DHT22;7908;51.688;7.130;2022-08-21T10:48:28;22.50;99.90
15617;DHT22;7908;51.688;7.130;2022-08-21T10:51:05;22.50;99.90
15617;DHT22;7908;51.688;7.130;2022-08-21T10:53:48;22.40;99.90
15617;DHT22;7908;51.688;7.130;2022-08-21T10:56:29;22.40;99.90
15617;DHT22;7908;51.688;7.130;2022-08-21T10:59:16;22.60;99.90
15617;DHT22;7908;51.688;7.130;2022-08-21T11:01:59;22.70;99.90
15617;DHT22;7908;51.688;7.130;2022-08-21T11:04:40;22.80;99.90
15617;DHT22;7908;51.688;7.130;2022-08-21T11:07:25;22.80;99.90
15617;DHT22;7908;51.688;7.130;2022-08-21T11:10:16;22.90;99.90
15617;DHT22;7908;51.688;7.130;2022-08-21T11:12:54;23.00;99.90
15617;DHT22;7908;51.688;7.130;2022-08-21T11:15:41;23.00;99.90
15617;DHT22;7908;51.688;7.130;2022-08-21T11:18:21;22.90;99.90
15617;DHT22;7908;51.688;7.130;2022-08-21T11:21:14;22.90;99.90
15617;DHT22;7908;51.688;7.130;2022-08-21T11:23:53;22.90;99.90
15617;DHT22;7908;51.688;7.130;2022-08-21T11:26:32;22.90;99.90
15617;DHT22;7908;51.688;7.130;2022-08-21T11:29:12;22.90;99.90
15617;DHT22;7908;51.688;7.130;2022-08-21T11:31:56;22.90;99.90
15617;DHT22;7908;51.688;7.130;2022-08-21T11:34:44;23.00;99.90
15617;DHT22;7908;51.688;7.130;2022-08-21T11:37:35;23.10;99.90
15617;DHT22;7908;51.688;7.130;2022-08-21T11:40:37;23.10;99.90
15617;DHT22;7908;51.688;7.130;2022-08-21T11:43:18;23.20;99.90
15617;DHT22;7908;51.688;7.130;2022-08-21T11:46:08;23.40;99.90
15617;DHT22;7908;51.688;7.130;2022-08-21T11:48:56;23.60;99.90
15617;DHT22;7908;51.688;7.130;2022-08-21T11:51:33;23.70;99.90
15617;DHT22;7908;51.688;7.130;2022-08-21T11:54:25;23.70;99.90
15617;DHT22;7908;51.688;7.130;2022-08-21T11:57:04;23.70;99.90
15617;DHT22;7908;51.688;7.130;2022-08-21T11:59:47;23.70;99.90
15617;DHT22;7908;51.688;7.130;2022-08-21T12:02:24;23.90;99.90
15617;DHT22;7908;51.688;7.130;2022-08-21T12:05:04;24.00;99.90
15617;DHT22;7908;51.688;7.130;2022-08-21T12:08:04;24.00;99.90
15617;DHT22;7908;51.688;7.130;2022-08-21T12:10:40;23.90;99.90
15617;DHT22;7908;51.688;7.130;2022-08-21T12:13:22;23.90;99.90
15617;DHT22;7908;51.688;7.130;2022-08-21T12:16:13;23.90;99.90
15617;DHT22;7908;51.688;7.130;2022-08-21T12:18:47;24.00;99.90
15617;DHT22;7908;51.688;7.130;2022-08-21T12:21:28;24.00;99.90
15617;DHT22;7908;51.688;7.130;2022-08-21T12:24:05;24.10;99.90
15617;DHT22;7908;51.688;7.130;2022-08-21T12:27:12;24.10;99.90
15617;DHT22;7908;51.688;7.130;2022-08-21T12:30:06;24.20;99.90
15617;DHT22;7908;51.688;7.130;2022-08-21T12:32:46;24.30;99.90
15617;DHT22;7908;51.688;7.130;2022-08-21T12:35:32;24.40;99.90
15617;DHT22;7908;51.688;7.130;2022-08-21T12:38:07;24.60;99.90
15617;DHT22;7908;51.688;7.130;2022-08-21T12:40:48;24.70;99.90
15617;DHT22;7908;51.688;7.130;2022-08-21T12:43:37;24.80;99.70
15617;DHT22;7908;51.688;7.130;2022-08-21T12:46:18;24.70;98.80
15617;DHT22;7908;51.688;7.130;2022-08-21T12:49:12;24.50;98.50
15617;DHT22;7908;51.688;7.130;2022-08-21T12:52:11;24.50;98.40
15617;DHT22;7908;51.688;7.130;2022-08-21T12:54:49;24.30;98.60
15617;DHT22;7908;51.688;7.130;2022-08-21T12:57:22;24.40;99.00
15617;DHT22;7908;51.688;7.130;2022-08-21T13:00:20;24.30;99.00
15617;DHT22;7908;51.688;7.130;2022-08-21T13:02:59;24.30;99.00
15617;DHT22;7908;51.688;7.130;2022-08-21T13:05:40;24.40;98.70
15617;DHT22;7908;51.688;7.130;2022-08-21T14:27:17;24.50;95.00
15617;DHT22;7908;51.688;7.130;2022-08-21T14:29:59;24.50;95.80
15617;DHT22;7908;51.688;7.130;2022-08-21T14:32:39;24.40;96.40
15617;DHT22;7908;51.688;7.130;2022-08-21T14:35:13;24.30;96.20
15617;DHT22;7908;51.688;7.130;2022-08-21T14:37:53;24.20;96.10
15617;DHT22;7908;51.688;7.130;2022-08-21T14:40:27;24.20;96.00
15617;DHT22;7908;51.688;7.130;2022-08-21T14:43:06;24.30;96.20
15617;DHT22;7908;51.688;7.130;2022-08-21T14:45:38;24.30;96.10
15617;DHT22;7908;51.688;7.130;2022-08-21T14:48:12;24.30;96.20
15617;DHT22;7908;51.688;7.130;2022-08-21T14:50:43;24.40;96.50
15617;DHT22;7908;51.688;7.130;2022-08-21T14:53:16;24.60;96.80
15617;DHT22;7908;51.688;7.130;2022-08-21T14:55:48;24.60;96.00
15617;DHT22;7908;51.688;7.130;2022-08-21T14:58:42;24.60;96.10
15617;DHT22;7908;51.688;7.130;2022-08-21T15:01:14;24.70;96.40
15617;DHT22;7908;51.688;7.130;2022-08-21T15:03:57;24.70;95.70
15617;DHT22;7908;51.688;7.130;2022-08-21T15:06:27;24.70;94.60
15617;DHT22;7908;51.688;7.130;2022-08-21T15:08:57;24.90;95.20
15617;DHT22;7908;51.688;7.130;2022-08-21T15:11:40;25.00;94.80
15617;DHT22;7908;51.688;7.130;2022-08-21T15:14:20;25.10;95.20
15617;DHT22;7908;51.688;7.130;2022-08-21T15:16:55;25.20;94.30
15617;DHT22;7908;51.688;7.130;2022-08-21T15:19:30;25.30;94.80
15617;DHT22;7908;51.688;7.130;2022-08-21T15:22:17;25.40;95.20
15617;DHT22;7908;51.688;7.130;2022-08-21T15:24:54;25.60;95.00
15617;DHT22;7908;51.688;7.130;2022-08-21T15:27:26;25.70;94.20
15617;DHT22;7908;51.688;7.130;2022-08-21T15:29:59;25.90;94.30
15617;DHT22;7908;51.688;7.130;2022-08-21T15:32:41;26.00;93.50
15617;DHT22;7908;51.688;7.130;2022-08-21T15:35:16;25.90;93.10
15617;DHT22;7908;51.688;7.130;2022-08-21T15:37:54;26.00;92.60
15617;DHT22;7908;51.688;7.130;2022-08-21T15:40:28;26.00;92.50
15617;DHT22;7908;51.688;7.130;2022-08-21T15:43:04;26.00;92.60
15617;DHT22;7908;51.688;7.130;2022-08-21T15:45:39;26.00;92.40
15617;DHT22;7908;51.688;7.130;2022-08-21T15:48:09;25.70;92.30
15617;DHT22;7908;51.688;7.130;2022-08-21T15:50:47;25.70;93.00
15617;DHT22;7908;51.688;7.130;2022-08-21T15:53:23;25.60;92.10
15617;DHT22;7908;51.688;7.130;2022-08-21T15:56:05;25.60;92.60
15617;DHT22;7908;51.688;7.130;2022-08-21T15:58:41;25.60;92.40
15617;DHT22;7908;51.688;7.130;2022-08-21T16:01:24;25.70;93.30
15617;DHT22;7908;51.688;7.130;2022-08-21T16:04:22;25.80;93.40
15617;DHT22;7908;51.688;7.130;2022-08-21T16:07:07;25.80;93.00
15617;DHT22;7908;51.688;7.130;2022-08-21T16:09:48;25.70;93.10
15617;DHT22;7908;51.688;7.130;2022-08-21T16:12:26;25.70;92.00
15617;DHT22;7908;51.688;7.130;2022-08-21T16:15:09;25.60;92.20
15617;DHT22;7908;51.688;7.130;2022-08-21T16:17:51;25.60;92.60
15617;DHT22;7908;51.688;7.130;2022-08-21T16:20:36;25.60;92.20
15617;DHT22;7908;51.688;7.130;2022-08-21T16:23:11;25.50;92.40
15617;DHT22;7908;51.688;7.130;2022-08-21T16:25:41;25.50;92.20
15617;DHT22;7908;51.688;7.130;2022-08-21T16:28:14;25.50;91.90
15617;DHT22;7908;51.688;7.130;2022-08-21T16:31:03;25.50;91.50
15617;DHT22;7908;51.688;7.130;2022-08-21T16:33:42;25.50;91.80
15617;DHT22;7908;51.688;7.130;2022-08-21T16:36:14;25.60;92.30
15617;DHT22;7908;51.688;7.130;2022-08-21T16:38:44;25.60;92.00
15617;DHT22;7908;51.688;7.130;2022-08-21T16:41:25;25.50;92.00
15617;DHT22;7908;51.688;7.130;2022-08-21T16:43:59;25.40;92.10
15617;DHT22;7908;51.688;7.130;2022-08-21T16:46:38;25.40;92.30
15617;DHT22;7908;51.688;7.130;2022-08-21T16:49:09;25.30;91.90
15617;DHT22;7908;51.688;7.130;2022-08-21T16:51:42;25.30;92.10
15617;DHT22;7908;51.688;7.130;2022-08-21T16:54:15;25.30;92.00
15617;DHT22;7908;51.688;7.130;2022-08-21T16:57:06;25.30;92.50
15617;DHT22;7908;51.688;7.130;2022-08-21T16:59:37;25.30;92.70
15617;DHT22;7908;51.688;7.130;2022-08-21T17:02:19;25.30;92.30
15617;DHT22;7908;51.688;7.130;2022-08-21T17:04:54;25.30;92.50
15617;DHT22;7908;51.688;7.130;2022-08-21T17:07:29;25.30;92.70
15617;DHT22;7908;51.688;7.130;2022-08-21T17:10:14;25.30;92.60
15617;DHT22;7908;51.688;7.130;2022-08-21T17:13:01;25.20;92.20
15617;DHT22;7908;51.688;7.130;2022-08-21T17:15:37;25.10;92.30
15617;DHT22;7908;51.688;7.130;2022-08-21T17:18:10;25.10;92.50
15617;DHT22;7908;51.688;7.130;2022-08-21T17:20:42;24.90;92.20
15617;DHT22;7908;51.688;7.130;2022-08-21T17:23:29;24.80;92.40
15617;DHT22;7908;51.688;7.130;2022-08-21T17:26:16;24.70;92.70
15617;DHT22;7908;51.688;7.130;2022-08-21T17:29:08;24.60;93.10
15617;DHT22;7908;51.688;7.130;2022-08-21T17:31:46;24.50;93.10
15617;DHT22;7908;51.688;7.130;2022-08-21T17:34:15;24.40;92.80
15617;DHT22;7908;51.688;7.130;2022-08-21T17:36:51;24.30;91.90
15617;DHT22;7908;51.688;7.130;2022-08-21T17:39:25;24.30;92.50
15617;DHT22;7908;51.688;7.130;2022-08-21T17:42:07;24.30;93.10
15617;DHT22;7908;51.688;7.130;2022-08-21T17:44:43;24.20;92.90
15617;DHT22;7908;51.688;7.130;2022-08-21T17:47:22;24.10;92.10
15617;DHT22;7908;51.688;7.130;2022-08-21T17:50:02;24.00;92.00
15617;DHT22;7908;51.688;7.130;2022-08-21T17:52:36;23.90;92.00
15617;DHT22;7908;51.688;7.130;2022-08-21T17:55:23;23.90;92.20
15617;DHT22;7908;51.688;7.130;2022-08-21T17:57:57;23.70;92.40
15617;DHT22;7908;51.688;7.130;2022-08-21T18:00:35;23.60;92.50
15617;DHT22;7908;51.688;7.130;2022-08-21T18:03:17;23.50;92.30
15617;DHT22;7908;51.688;7.130;2022-08-21T18:05:53;23.40;92.70
15617;DHT22;7908;51.688;7.130;2022-08-21T18:08:36;23.30;92.90
15617;DHT22;7908;51.688;7.130;2022-08-21T18:11:14;23.20;93.20
15617;DHT22;7908;51.688;7.130;2022-08-21T18:13:54;23.10;93.50